createdAt,value
2018-09-06T00:00:51.265Z,55.74
2018-09-06T00:03:18.952Z,55.14
2018-09-06T00:05:46.600Z,55.18
2018-09-06T00:08:14.243Z,55.20
2018-09-06T00:10:42.979Z,55.45
2018-09-06T00:13:10.607Z,55.59
2018-09-06T00:15:38.230Z,55.94
2018-09-06T00:18:05.866Z,55.64
2018-09-06T00:20:33.532Z,55.06
2018-09-06T00:23:01.424Z,55.01
2018-09-06T00:25:29.067Z,55.39
2018-09-06T00:27:56.747Z,55.78
2018-09-06T00:30:24.426Z,55.89
2018-09-06T00:32:52.039Z,55.94
2018-09-06T00:35:19.648Z,55.56
2018-09-06T00:37:47.316Z,55.45
2018-09-06T00:40:14.952Z,55.64
2018-09-06T00:42:42.587Z,56.45
2018-09-06T00:45:10.264Z,56.65
2018-09-06T00:47:37.962Z,56.94
2018-09-06T00:50:10.190Z,56.91
2018-09-06T00:52:37.849Z,57.11
2018-09-06T00:55:05.642Z,56.83
2018-09-06T00:57:33.385Z,56.63
2018-09-06T01:00:00.993Z,57.00
2018-09-06T01:02:28.580Z,56.71
2018-09-06T01:04:56.317Z,56.96
2018-09-06T01:07:29.127Z,57.17
2018-09-06T01:09:56.824Z,56.36
2018-09-06T01:12:24.438Z,57.25
2018-09-06T01:14:52.073Z,56.92
2018-09-06T01:17:19.740Z,57.46
2018-09-06T01:19:47.403Z,57.74
2018-09-06T01:22:14.998Z,57.45
2018-09-06T01:24:42.652Z,57.52
2018-09-06T01:27:10.265Z,57.59
2018-09-06T01:29:37.852Z,57.86
2018-09-06T01:32:05.549Z,57.88
2018-09-06T01:34:33.272Z,58.29
2018-09-06T01:37:05.430Z,57.84
2018-09-06T01:39:33.069Z,57.69
2018-09-06T01:42:00.694Z,57.90
2018-09-06T01:44:28.359Z,58.00
2018-09-06T01:46:55.951Z,57.88
2018-09-06T01:49:23.635Z,57.03
2018-09-06T01:51:51.330Z,57.42
2018-09-06T01:54:18.916Z,58.00
2018-09-06T01:56:46.576Z,58.20
2018-09-06T01:59:14.338Z,57.80
2018-09-06T02:01:42.223Z,57.62
2018-09-06T02:04:10.706Z,57.72
2018-09-06T02:06:38.610Z,57.52
2018-09-06T02:09:07.674Z,56.92
2018-09-06T02:11:35.809Z,57.80
2018-09-06T02:14:03.629Z,58.49
2018-09-06T02:16:31.495Z,58.74
2018-09-06T02:18:59.107Z,58.45
2018-09-06T02:21:26.775Z,58.75
2018-09-06T02:23:54.392Z,58.66
2018-09-06T02:26:22.038Z,58.79
2018-09-06T02:28:49.710Z,59.06
2018-09-06T02:31:17.353Z,58.77
2018-09-06T02:33:45.000Z,58.79
2018-09-06T02:36:12.651Z,58.82
2018-09-06T02:38:40.284Z,58.68
2018-09-06T02:41:07.900Z,58.57
2018-09-06T02:43:35.596Z,59.17
2018-09-06T02:46:03.303Z,58.97
2018-09-06T02:48:36.484Z,59.15
2018-09-06T02:51:19.934Z,59.07
2018-09-06T02:53:47.686Z,58.77
2018-09-06T02:56:15.935Z,58.96
2018-09-06T02:58:43.554Z,59.09
2018-09-06T03:01:11.188Z,58.87
2018-09-06T03:03:38.870Z,58.28
2018-09-06T03:06:07.057Z,59.03
2018-09-06T03:08:34.851Z,58.92
2018-09-06T03:12:07.528Z,59.78
2018-09-06T03:14:35.313Z,59.80
2018-09-06T03:17:02.979Z,59.74
2018-09-06T03:19:30.596Z,59.49
2018-09-06T03:21:58.248Z,59.63
2018-09-06T03:24:26.013Z,59.40
2018-09-06T03:26:53.702Z,59.19
2018-09-06T03:29:21.447Z,59.58
2018-09-06T03:31:49.142Z,59.72
2018-09-06T03:34:16.790Z,60.26
2018-09-06T03:36:44.464Z,60.42
2018-09-06T03:39:12.092Z,59.86
2018-09-06T03:41:39.731Z,60.05
2018-09-06T03:44:07.417Z,60.11
2018-09-06T03:46:35.157Z,59.95
2018-09-06T03:49:02.781Z,60.21
2018-09-06T03:51:30.485Z,60.24
2018-09-06T03:53:58.145Z,60.16
2018-09-06T03:56:25.764Z,59.69
2018-09-06T03:58:53.412Z,59.65
2018-09-06T04:01:21.068Z,59.38
2018-09-06T04:03:48.684Z,59.70
2018-09-06T04:06:16.332Z,59.31
2018-09-06T04:08:44.140Z,59.85
2018-09-06T04:11:11.968Z,59.37
2018-09-06T04:13:39.639Z,59.73
2018-09-06T04:16:07.283Z,59.73
2018-09-06T04:18:35.009Z,59.67
2018-09-06T04:21:02.668Z,60.00
2018-09-06T04:23:30.340Z,60.12
2018-09-06T04:25:58.042Z,59.72
2018-09-06T04:28:25.711Z,59.82
2018-09-06T04:30:53.428Z,59.81
2018-09-06T04:33:21.037Z,59.57
2018-09-06T04:35:48.707Z,59.46
2018-09-06T04:38:16.335Z,59.62
2018-09-06T04:40:43.965Z,59.99
2018-09-06T04:43:11.614Z,60.19
2018-09-06T04:45:39.224Z,59.92
2018-09-06T04:48:06.921Z,60.29
2018-09-06T04:50:34.532Z,59.98
2018-09-06T04:53:02.135Z,60.79
2018-09-06T04:55:29.742Z,60.69
2018-09-06T04:57:57.373Z,60.62
2018-09-06T05:00:25.037Z,60.50
2018-09-06T05:02:52.643Z,60.56
2018-09-06T05:05:20.321Z,60.85
2018-09-06T05:07:48.021Z,61.10
2018-09-06T05:10:15.670Z,61.22
2018-09-06T05:12:43.289Z,61.21
2018-09-06T05:15:10.919Z,61.21
2018-09-06T05:17:38.505Z,60.82
2018-09-06T05:20:06.327Z,60.92
2018-09-06T05:22:33.953Z,61.25
2018-09-06T05:25:01.606Z,61.27
2018-09-06T05:27:29.544Z,60.52
2018-09-06T05:29:57.160Z,60.61
2018-09-06T05:32:24.847Z,59.62
2018-09-06T05:34:52.491Z,59.41
2018-09-06T05:37:20.085Z,59.51
2018-09-06T05:39:47.707Z,60.25
2018-09-06T05:42:15.427Z,60.10
2018-09-06T05:44:43.256Z,60.06
2018-09-06T05:47:10.900Z,60.07
2018-09-06T05:49:38.551Z,59.68
2018-09-06T05:52:06.294Z,59.80
2018-09-06T05:54:33.926Z,59.65
2018-09-06T05:57:01.666Z,59.25
2018-09-06T05:59:29.304Z,58.96
2018-09-06T06:01:57.015Z,58.91
2018-09-06T06:04:24.686Z,58.35
2018-09-06T06:06:52.327Z,57.58
2018-09-06T06:09:19.964Z,57.27
2018-09-06T06:11:47.705Z,57.75
2018-09-06T06:14:15.327Z,57.54
2018-09-06T06:16:42.942Z,57.32
2018-09-06T06:19:10.661Z,57.44
2018-09-06T06:21:38.299Z,57.29
2018-09-06T06:24:06.137Z,57.96
2018-09-06T06:26:33.784Z,57.85
2018-09-06T06:29:01.426Z,58.42
2018-09-06T06:31:29.050Z,58.21
2018-09-06T06:33:56.761Z,57.80
2018-09-06T06:36:24.396Z,56.76
2018-09-06T06:38:52.145Z,55.43
2018-09-06T06:41:19.816Z,55.13
2018-09-06T06:43:47.423Z,54.01
2018-09-06T06:46:15.036Z,53.33
2018-09-06T06:48:42.675Z,52.34
2018-09-06T06:51:10.330Z,51.36
2018-09-06T06:53:37.954Z,50.64
2018-09-06T06:56:05.770Z,50.23
2018-09-06T06:58:33.440Z,50.25
2018-09-06T07:01:01.102Z,49.54
2018-09-06T07:03:28.738Z,48.34
2018-09-06T07:05:56.368Z,47.76
2018-09-06T07:08:23.973Z,47.17
2018-09-06T07:10:51.630Z,45.92
2018-09-06T07:13:19.256Z,45.36
2018-09-06T07:15:46.886Z,44.60
2018-09-06T07:18:14.669Z,43.91
2018-09-06T07:20:42.309Z,43.56
2018-09-06T07:23:09.920Z,44.49
2018-09-06T07:25:37.610Z,43.87
2018-09-06T07:28:05.280Z,42.31
2018-09-06T07:30:32.924Z,40.96
2018-09-06T07:33:00.607Z,40.26
2018-09-06T07:35:28.247Z,39.69
2018-09-06T07:37:55.887Z,38.97
2018-09-06T07:40:23.516Z,38.44
2018-09-06T07:42:51.125Z,38.81
2018-09-06T07:45:18.744Z,37.38
2018-09-06T07:47:46.400Z,36.88
2018-09-06T07:50:14.026Z,36.00
2018-09-06T07:52:41.692Z,35.78
2018-09-06T07:55:09.366Z,34.48
2018-09-06T07:57:37.032Z,33.72
2018-09-06T08:00:05.283Z,31.99
2018-09-06T08:02:32.972Z,30.91
2018-09-06T08:05:00.599Z,30.69
2018-09-06T08:07:28.226Z,30.39
2018-09-06T08:09:55.950Z,29.10
2018-09-06T08:12:23.668Z,28.59
2018-09-06T08:14:51.301Z,27.10
2018-09-06T08:17:19.002Z,25.72
2018-09-06T08:19:46.652Z,25.00
2018-09-06T08:22:14.264Z,24.50
2018-09-06T08:24:41.936Z,24.97
2018-09-06T08:27:09.581Z,24.64
2018-09-06T08:29:37.245Z,24.53
2018-09-06T08:32:04.889Z,23.45
2018-09-06T08:34:32.515Z,22.90
2018-09-06T08:37:00.211Z,23.54
2018-09-06T08:39:27.896Z,22.17
2018-09-06T08:41:55.529Z,23.09
2018-09-06T08:44:23.248Z,23.12
2018-09-06T08:46:50.986Z,22.75
2018-09-06T08:49:18.607Z,22.48
2018-09-06T08:51:46.251Z,22.21
2018-09-06T08:54:13.927Z,21.79
2018-09-06T08:56:41.540Z,21.58
2018-09-06T08:59:09.230Z,22.25
2018-09-06T09:01:37.863Z,21.22
2018-09-06T09:04:06.100Z,20.68
2018-09-06T09:06:33.756Z,20.67
2018-09-06T09:09:01.440Z,21.07
2018-09-06T09:11:29.123Z,20.42
2018-09-06T09:13:56.772Z,19.86
2018-09-06T09:16:24.462Z,20.92
2018-09-06T09:18:52.188Z,20.01
2018-09-06T09:21:19.853Z,20.14
2018-09-06T09:23:47.597Z,19.46
2018-09-06T09:26:15.305Z,18.96
2018-09-06T09:28:42.982Z,18.56
2018-09-06T09:31:10.651Z,19.63
2018-09-06T09:33:38.291Z,19.97
2018-09-06T09:36:06.131Z,19.11
2018-09-06T09:38:33.861Z,19.27
2018-09-06T09:41:01.661Z,19.80
2018-09-06T09:43:29.334Z,19.79
2018-09-06T09:48:24.172Z,19.95
2018-09-06T09:50:51.819Z,19.45
2018-09-06T09:53:19.455Z,18.46
2018-09-06T09:55:47.061Z,18.85
2018-09-06T09:58:14.712Z,19.41
2018-09-06T10:00:42.883Z,20.08
2018-09-06T10:03:16.152Z,21.93
2018-09-06T10:06:47.278Z,21.34
2018-09-06T10:09:16.438Z,20.20
2018-09-06T10:11:44.357Z,20.20
2018-09-06T10:14:12.129Z,19.50
2018-09-06T10:16:39.857Z,18.93
2018-09-06T10:19:07.516Z,19.32
2018-09-06T10:21:35.197Z,19.90
2018-09-06T10:24:02.866Z,20.33
2018-09-06T10:26:30.554Z,22.12
2018-09-06T10:28:58.207Z,22.18
2018-09-06T10:31:25.920Z,21.81
2018-09-06T10:33:53.539Z,20.56
2018-09-06T10:36:21.216Z,19.95
2018-09-06T10:38:48.880Z,19.47
2018-09-06T10:41:16.519Z,18.78
2018-09-06T10:43:44.187Z,19.08
2018-09-06T10:46:11.804Z,19.69
2018-09-06T10:48:39.458Z,19.75
2018-09-06T10:51:07.135Z,18.04
2018-09-06T10:53:34.826Z,18.51
2018-09-06T10:56:02.551Z,16.65
2018-09-06T10:58:30.313Z,16.86
2018-09-06T11:01:03.560Z,17.27
2018-09-06T11:03:31.320Z,16.47
2018-09-06T11:05:59.040Z,17.09
2018-09-06T11:08:26.718Z,17.59
2018-09-06T11:10:54.345Z,18.24
2018-09-06T11:13:22.096Z,19.20
2018-09-06T11:15:49.703Z,20.81
2018-09-06T11:18:17.371Z,22.58
2018-09-06T11:20:45.104Z,22.81
2018-09-06T11:23:12.779Z,24.15
2018-09-06T11:25:40.496Z,24.06
2018-09-06T11:28:08.252Z,23.84
2018-09-06T11:30:35.879Z,24.05
2018-09-06T11:33:03.638Z,24.84
2018-09-06T11:35:31.455Z,24.79
2018-09-06T11:37:59.206Z,26.11
2018-09-06T11:40:26.931Z,25.74
2018-09-06T11:42:54.567Z,23.90
2018-09-06T11:45:22.182Z,20.86
2018-09-06T11:47:49.998Z,20.61
2018-09-06T11:50:17.612Z,20.47
2018-09-06T11:52:45.262Z,18.43
2018-09-06T11:55:12.940Z,16.83
2018-09-06T11:57:40.565Z,15.87
2018-09-06T12:00:08.228Z,15.58
2018-09-06T12:02:35.944Z,15.22
2018-09-06T12:05:03.651Z,14.74
2018-09-06T12:07:31.270Z,14.50
2018-09-06T12:09:59.224Z,14.97
2018-09-06T12:12:26.856Z,14.51
2018-09-06T12:14:54.559Z,13.84
2018-09-06T12:17:22.245Z,13.70
2018-09-06T12:19:49.868Z,13.42
2018-09-06T12:22:17.620Z,13.87
2018-09-06T12:24:45.361Z,13.28
2018-09-06T12:27:13.107Z,12.70
2018-09-06T12:29:40.717Z,13.54
2018-09-06T12:32:08.483Z,12.79
2018-09-06T12:34:36.268Z,12.74
2018-09-06T12:37:08.871Z,12.34
2018-09-06T12:39:36.564Z,12.45
2018-09-06T12:42:04.263Z,12.95
2018-09-06T12:44:31.980Z,13.60
2018-09-06T12:46:59.743Z,15.09
2018-09-06T12:49:27.391Z,14.64
2018-09-06T12:51:55.188Z,15.19
2018-09-06T12:54:22.848Z,14.65
2018-09-06T12:56:50.470Z,16.71
2018-09-06T12:59:18.114Z,17.21
2018-09-06T13:01:45.752Z,17.02
2018-09-06T13:04:13.379Z,16.94
2018-09-06T13:06:41.004Z,17.62
2018-09-06T13:09:09.026Z,19.17
2018-09-06T13:11:37.349Z,20.68
2018-09-06T13:14:05.061Z,21.44
2018-09-06T13:16:32.688Z,21.96
2018-09-06T13:19:00.366Z,22.18
2018-09-06T13:21:28.036Z,23.58
2018-09-06T13:23:55.649Z,25.38
2018-09-06T13:26:23.324Z,25.29
2018-09-06T13:28:51.142Z,26.17
2018-09-06T13:31:18.824Z,26.16
2018-09-06T13:33:46.578Z,26.13
2018-09-06T13:36:14.240Z,26.53
2018-09-06T13:38:41.868Z,26.38
2018-09-06T13:41:09.507Z,27.76
2018-09-06T13:43:37.261Z,24.86
2018-09-06T13:46:04.822Z,20.53
2018-09-06T13:48:32.439Z,18.83
2018-09-06T13:51:00.140Z,17.52
2018-09-06T13:53:27.773Z,18.01
2018-09-06T13:55:55.459Z,16.38
2018-09-06T13:58:23.094Z,16.60
2018-09-06T14:00:50.721Z,15.96
2018-09-06T14:03:18.340Z,14.74
2018-09-06T14:05:46.052Z,15.32
2018-09-06T14:08:13.633Z,15.96
2018-09-06T14:10:41.221Z,16.09
2018-09-06T14:13:08.884Z,15.80
2018-09-06T14:15:36.508Z,16.05
2018-09-06T14:18:04.177Z,16.94
2018-09-06T14:20:31.968Z,17.33
2018-09-06T14:22:59.569Z,19.40
2018-09-06T14:25:27.277Z,21.18
2018-09-06T14:27:54.905Z,22.05
2018-09-06T14:30:22.610Z,21.68
2018-09-06T14:32:50.223Z,23.31
2018-09-06T14:35:17.876Z,24.74
2018-09-06T14:37:45.490Z,24.53
2018-09-06T14:40:13.126Z,24.89
2018-09-06T14:42:40.778Z,23.90
2018-09-06T14:45:08.524Z,23.84
2018-09-06T14:47:36.187Z,22.49
2018-09-06T14:50:04.158Z,21.48
2018-09-06T14:52:31.766Z,19.56
2018-09-06T14:54:59.368Z,19.31
2018-09-06T14:57:27.063Z,19.33
2018-09-06T14:59:54.683Z,20.62
2018-09-06T15:02:22.292Z,21.65
2018-09-06T15:04:50.018Z,21.71
2018-09-06T15:07:17.744Z,21.78
2018-09-06T15:09:45.387Z,20.04
2018-09-06T15:12:13.114Z,20.39
2018-09-06T15:14:40.832Z,20.52
2018-09-06T15:17:08.452Z,21.97
2018-09-06T15:19:36.113Z,23.09
2018-09-06T15:22:03.750Z,23.66
2018-09-06T15:24:31.398Z,23.94
2018-09-06T15:26:59.064Z,23.60
2018-09-06T15:29:26.764Z,24.21
2018-09-06T15:31:54.419Z,24.98
2018-09-06T15:34:22.462Z,26.34
2018-09-06T15:36:50.173Z,26.47
2018-09-06T15:39:17.819Z,27.04
2018-09-06T15:41:45.510Z,27.71
2018-09-06T15:44:13.113Z,28.21
2018-09-06T15:46:40.822Z,28.22
2018-09-06T15:49:08.557Z,28.82
2018-09-06T15:51:36.180Z,29.05
2018-09-06T15:54:03.828Z,30.40
2018-09-06T15:56:31.464Z,30.69
2018-09-06T15:58:59.072Z,30.43
2018-09-06T16:01:26.688Z,31.04
2018-09-06T16:03:54.440Z,30.51
2018-09-06T16:06:22.555Z,31.33
2018-09-06T16:08:50.217Z,30.96
2018-09-06T16:11:18.015Z,31.29
2018-09-06T16:13:45.703Z,31.83
2018-09-06T16:16:13.375Z,31.68
2018-09-06T16:18:41.218Z,31.58
2018-09-06T16:21:08.856Z,31.90
2018-09-06T16:23:36.535Z,31.56
2018-09-06T16:26:04.188Z,31.25
2018-09-06T16:28:31.828Z,31.52
2018-09-06T16:30:59.460Z,31.71
2018-09-06T16:33:27.141Z,31.72
2018-09-06T16:35:54.897Z,31.70
2018-09-06T16:38:22.529Z,31.92
2018-09-06T16:40:50.224Z,31.62
2018-09-06T16:43:17.891Z,32.17
2018-09-06T16:45:45.562Z,32.14
2018-09-06T16:48:13.234Z,32.07
2018-09-06T16:50:40.839Z,32.55
2018-09-06T16:53:08.451Z,32.59
2018-09-06T16:55:36.247Z,32.40
2018-09-06T16:58:03.887Z,33.03
2018-09-06T17:00:31.547Z,33.29
2018-09-06T17:02:59.219Z,33.56
2018-09-06T17:05:26.911Z,33.58
2018-09-06T17:07:54.639Z,33.83
2018-09-06T17:10:22.394Z,34.50
2018-09-06T17:12:50.097Z,34.73
2018-09-06T17:15:17.773Z,34.39
2018-09-06T17:17:45.531Z,34.41
2018-09-06T17:20:13.197Z,34.85
2018-09-06T17:22:40.866Z,34.96
2018-09-06T17:25:08.549Z,35.14
2018-09-06T17:27:36.259Z,35.77
2018-09-06T17:30:04.004Z,35.67
2018-09-06T17:32:31.685Z,36.25
2018-09-06T17:34:59.330Z,36.25
2018-09-06T17:37:26.947Z,36.44
2018-09-06T17:39:54.644Z,36.52
2018-09-06T17:42:22.264Z,36.61
2018-09-06T17:44:49.881Z,37.17
2018-09-06T17:47:17.548Z,37.58
2018-09-06T17:49:45.210Z,37.19
2018-09-06T17:52:12.902Z,37.88
2018-09-06T17:54:40.607Z,37.73
2018-09-06T17:57:08.261Z,37.87
2018-09-06T17:59:35.972Z,38.19
2018-09-06T18:02:03.754Z,38.19
2018-09-06T18:04:31.416Z,38.68
2018-09-06T18:06:59.044Z,38.88
2018-09-06T18:09:26.732Z,38.93
2018-09-06T18:11:54.442Z,38.78
2018-09-06T18:14:22.120Z,39.18
2018-09-06T18:16:49.976Z,39.14
2018-09-06T18:19:17.648Z,38.94
2018-09-06T18:21:45.347Z,39.01
2018-09-06T18:24:13.027Z,39.21
2018-09-06T18:26:40.736Z,39.08
2018-09-06T18:29:08.410Z,38.98
2018-09-06T18:31:36.179Z,39.07
2018-09-06T18:34:04.021Z,38.90
2018-09-06T18:36:31.772Z,38.87
2018-09-06T18:38:59.441Z,39.55
2018-09-06T18:41:27.097Z,39.40
2018-09-06T18:43:54.810Z,39.38
2018-09-06T18:46:22.468Z,39.81
2018-09-06T18:48:50.113Z,39.36
2018-09-06T18:51:17.776Z,39.25
2018-09-06T18:53:45.499Z,39.54
2018-09-06T18:56:13.155Z,39.46
2018-09-06T18:58:40.815Z,39.40
2018-09-06T19:01:08.599Z,39.23
2018-09-06T19:03:36.278Z,39.39
2018-09-06T19:06:03.962Z,39.34
2018-09-06T19:08:31.691Z,39.40
2018-09-06T19:10:59.387Z,39.19
2018-09-06T19:13:27.011Z,39.15
2018-09-06T19:15:54.684Z,39.25
2018-09-06T19:18:22.547Z,38.81
2018-09-06T19:20:50.188Z,39.42
2018-09-06T19:23:17.854Z,39.49
2018-09-06T19:25:45.504Z,39.46
2018-09-06T19:28:13.130Z,38.75
2018-09-06T19:30:40.847Z,38.78
2018-09-06T19:33:08.470Z,38.99
2018-09-06T19:35:36.108Z,39.46
2018-09-06T19:38:04.075Z,39.54
2018-09-06T19:40:31.728Z,39.66
2018-09-06T19:42:59.509Z,39.19
2018-09-06T19:45:27.206Z,39.44
2018-09-06T19:47:54.860Z,39.37
2018-09-06T19:50:22.501Z,39.38
2018-09-06T19:52:50.204Z,39.79
2018-09-06T19:55:17.843Z,39.55
2018-09-06T19:57:45.470Z,39.09
2018-09-06T20:00:13.223Z,39.12
2018-09-06T20:02:40.963Z,39.24
2018-09-06T20:05:08.684Z,39.38
2018-09-06T20:07:36.394Z,39.24
2018-09-06T20:10:04.278Z,39.11
2018-09-06T20:12:31.919Z,38.93
2018-09-06T20:14:59.568Z,39.19
2018-09-06T20:17:27.226Z,38.70
2018-09-06T20:19:54.867Z,39.00
2018-09-06T20:22:22.519Z,39.46
2018-09-06T20:24:50.180Z,39.25
2018-09-06T20:27:17.789Z,39.02
2018-09-06T20:29:45.471Z,39.10
2018-09-06T20:32:13.102Z,39.53
2018-09-06T20:34:40.924Z,39.23
2018-09-06T20:37:08.632Z,39.42
2018-09-06T20:39:36.263Z,39.41
2018-09-06T20:42:04.033Z,39.42
2018-09-06T20:44:31.944Z,39.73
2018-09-06T20:46:59.835Z,39.73
2018-09-06T20:49:27.508Z,39.53
2018-09-06T20:51:55.172Z,40.18
2018-09-06T20:54:22.824Z,40.11
2018-09-06T20:56:50.562Z,40.07
2018-09-06T20:59:18.228Z,39.69
2018-09-06T21:01:46.017Z,39.83
2018-09-06T21:04:13.723Z,39.36
2018-09-06T21:06:41.374Z,39.07
2018-09-06T21:09:09.499Z,39.51
2018-09-06T21:11:37.612Z,39.55
2018-09-06T21:14:05.624Z,39.35
2018-09-06T21:16:33.277Z,39.24
2018-09-06T21:19:00.928Z,39.22
2018-09-06T21:21:28.620Z,39.59
2018-09-06T21:23:56.272Z,39.12
2018-09-06T21:26:23.919Z,39.10
2018-09-06T21:28:51.567Z,38.92
2018-09-06T21:31:19.188Z,39.40
2018-09-06T21:33:46.862Z,39.50
2018-09-06T21:36:14.519Z,39.20
2018-09-06T21:38:42.132Z,38.71
2018-09-06T21:41:09.769Z,38.63
2018-09-06T21:43:37.525Z,38.88
2018-09-06T21:46:05.186Z,39.15
2018-09-06T21:48:32.819Z,39.24
2018-09-06T21:51:00.501Z,39.33
2018-09-06T21:53:28.293Z,38.91
2018-09-06T21:55:55.926Z,39.07
2018-09-06T21:58:23.634Z,38.84
2018-09-06T22:00:51.282Z,39.29
2018-09-06T22:03:24.455Z,38.99
2018-09-06T22:05:52.205Z,39.43
2018-09-06T22:08:19.833Z,39.17
2018-09-06T22:10:47.500Z,39.31
2018-09-06T22:13:15.179Z,39.95
2018-09-06T22:15:42.799Z,40.03
2018-09-06T22:18:10.836Z,40.06
2018-09-06T22:20:38.533Z,40.70
2018-09-06T22:23:06.440Z,41.05
2018-09-06T22:25:34.076Z,41.27
2018-09-06T22:28:01.792Z,41.48
2018-09-06T22:30:29.459Z,41.31
2018-09-06T22:32:57.144Z,41.28
2018-09-06T22:35:24.779Z,41.55
2018-09-06T22:37:52.404Z,41.57
2018-09-06T22:40:20.045Z,41.56
2018-09-06T22:42:47.652Z,42.07
2018-09-06T22:45:15.281Z,42.04
2018-09-06T22:47:42.971Z,41.50
2018-09-06T22:50:10.689Z,41.32
2018-09-06T22:52:38.343Z,41.39
2018-09-06T22:55:06.096Z,41.34
2018-09-06T22:57:33.907Z,41.57
2018-09-06T23:00:01.656Z,42.04
2018-09-06T23:02:34.863Z,41.54
2018-09-06T23:05:02.516Z,41.74
2018-09-06T23:07:30.160Z,41.92
2018-09-06T23:09:57.816Z,41.86
2018-09-06T23:12:25.535Z,41.46
2018-09-06T23:14:53.167Z,41.80
2018-09-06T23:17:20.971Z,41.97
2018-09-06T23:19:48.603Z,41.54
2018-09-06T23:22:16.232Z,42.20
2018-09-06T23:24:44.943Z,42.23
2018-09-06T23:27:12.696Z,42.43
2018-09-06T23:29:40.300Z,42.62
2018-09-06T23:32:07.952Z,42.61
2018-09-06T23:34:36.160Z,43.24
2018-09-06T23:37:04.464Z,43.06
2018-09-06T23:39:32.286Z,43.52
2018-09-06T23:42:00.036Z,43.83
2018-09-06T23:44:27.660Z,43.64
2018-09-06T23:46:55.364Z,44.00
2018-09-06T23:49:23.021Z,43.98
2018-09-06T23:51:50.664Z,44.46
2018-09-06T23:54:18.330Z,44.62
2018-09-06T23:56:45.999Z,45.01
2018-09-06T23:59:13.679Z,45.35
